Channing, Texas
Current Conditions -  °F | °C
As of 8:53 PM on Friday 21 Nov 2014 (Local Time) from KDHT Reporting Station
Clear Clear  
Wind Chill: 34°   Ceiling: Unl
Heat Index: 40°   Visibility: 10mi
Dew Point: 30°   Wind: 8mph
Humidity: 68%   Direction: 160°SSE
Pressure: 29.99"   Gusts: NA
Location:  35.68°N, 102.33°W
Report Text: KDHT 220253Z AUTO 16007KT 10SM CLR 04/M01 A2999 RMK AO2 SLP156 T00441011 51007
Loading
Personal Weather Stations






























Interactive Weather Map New forecast layout! Learn more

10-Day Weather Forecast

Advertisements
Track Severe Weather on mobile